sensor_id;sensor_type;location;lat;lon;timestamp;pressure;altitude;pressure_sealevel;temperature;humidity
31088;BME280;17745;55.914;37.554;2022-11-24T00:00:04;98882.38;;;0.37;58.89
31088;BME280;17745;55.914;37.554;2022-11-24T00:02:32;98888.06;;;0.48;58.87
31088;BME280;17745;55.914;37.554;2022-11-24T00:05:02;98880.06;;;0.56;58.97
31088;BME280;17745;55.914;37.554;2022-11-24T00:07:32;98890.13;;;0.66;58.95
31088;BME280;17745;55.914;37.554;2022-11-24T00:10:01;98897.78;;;0.74;58.93
31088;BME280;17745;55.914;37.554;2022-11-24T00:12:32;98900.19;;;0.82;59.07
31088;BME280;17745;55.914;37.554;2022-11-24T00:15:01;98902.25;;;0.94;59.09
31088;BME280;17745;55.914;37.554;2022-11-24T00:17:30;98899.84;;;0.99;58.97
31088;BME280;17745;55.914;37.554;2022-11-24T00:20:00;98897.84;;;1.01;58.77
31088;BME280;17745;55.914;37.554;2022-11-24T00:22:29;98904.66;;;1.02;58.59
31088;BME280;17745;55.914;37.554;2022-11-24T00:24:58;98900.62;;;0.99;58.85
31088;BME280;17745;55.914;37.554;2022-11-24T00:27:26;98903.84;;;1.02;58.83
31088;BME280;17745;55.914;37.554;2022-11-24T00:29:55;98907.47;;;1.07;58.89
31088;BME280;17745;55.914;37.554;2022-11-24T00:32:26;98906.66;;;1.00;58.41
31088;BME280;17745;55.914;37.554;2022-11-24T00:34:56;98910.44;;;0.91;58.47
31088;BME280;17745;55.914;37.554;2022-11-24T00:37:25;98912.84;;;0.85;58.24
31088;BME280;17745;55.914;37.554;2022-11-24T00:39:53;98914.66;;;0.85;58.27
31088;BME280;17745;55.914;37.554;2022-11-24T00:42:21;98918.91;;;0.93;58.37
31088;BME280;17745;55.914;37.554;2022-11-24T00:44:49;98925.53;;;1.02;58.33
31088;BME280;17745;55.914;37.554;2022-11-24T00:47:19;98930.75;;;1.02;58.24
31088;BME280;17745;55.914;37.554;2022-11-24T00:49:46;98926.06;;;0.91;58.16
31088;BME280;17745;55.914;37.554;2022-11-24T00:52:14;98927.47;;;0.87;58.27
31088;BME280;17745;55.914;37.554;2022-11-24T00:54:43;98928.47;;;0.85;58.47
31088;BME280;17745;55.914;37.554;2022-11-24T00:57:18;98924.69;;;0.88;58.61
31088;BME280;17745;55.914;37.554;2022-11-24T00:59:50;98934.91;;;0.90;58.31
31088;BME280;17745;55.914;37.554;2022-11-24T01:05:19;98939.13;;;0.84;57.91
31088;BME280;17745;55.914;37.554;2022-11-24T01:07:50;98931.25;;;0.77;57.85
31088;BME280;17745;55.914;37.554;2022-11-24T01:10:18;98937.22;;;0.64;57.98
31088;BME280;17745;55.914;37.554;2022-11-24T01:12:46;98944.22;;;0.64;57.99
31088;BME280;17745;55.914;37.554;2022-11-24T01:15:15;98947.00;;;0.55;58.11
31088;BME280;17745;55.914;37.554;2022-11-24T01:17:44;98949.44;;;0.64;58.26
31088;BME280;17745;55.914;37.554;2022-11-24T01:20:13;98951.47;;;0.68;58.46
31088;BME280;17745;55.914;37.554;2022-11-24T01:22:46;98956.34;;;0.43;58.41
31088;BME280;17745;55.914;37.554;2022-11-24T01:25:15;98960.56;;;0.44;58.27
31088;BME280;17745;55.914;37.554;2022-11-24T01:27:44;98958.97;;;0.43;58.18
31088;BME280;17745;55.914;37.554;2022-11-24T01:30:12;98958.91;;;0.36;58.25
31088;BME280;17745;55.914;37.554;2022-11-24T01:32:40;98961.59;;;0.14;58.48
31088;BME280;17745;55.914;37.554;2022-11-24T01:35:08;98956.03;;;0.24;58.23
31088;BME280;17745;55.914;37.554;2022-11-24T01:37:36;98954.44;;;0.23;58.16
31088;BME280;17745;55.914;37.554;2022-11-24T01:40:06;98952.66;;;0.24;58.31
31088;BME280;17745;55.914;37.554;2022-11-24T01:45:34;98959.03;;;0.21;58.36
31088;BME280;17745;55.914;37.554;2022-11-24T01:48:10;98955.25;;;0.31;58.29
31088;BME280;17745;55.914;37.554;2022-11-24T01:50:42;98965.69;;;0.31;58.40
31088;BME280;17745;55.914;37.554;2022-11-24T01:53:14;98963.56;;;0.41;58.30
31088;BME280;17745;55.914;37.554;2022-11-24T01:55:44;98965.16;;;0.42;58.21
31088;BME280;17745;55.914;37.554;2022-11-24T01:58:13;98962.94;;;0.39;58.05
31088;BME280;17745;55.914;37.554;2022-11-24T02:00:43;98974.50;;;0.30;58.08
31088;BME280;17745;55.914;37.554;2022-11-24T02:03:27;98978.91;;;0.29;58.02
31088;BME280;17745;55.914;37.554;2022-11-24T02:05:59;98983.06;;;0.23;57.85
31088;BME280;17745;55.914;37.554;2022-11-24T02:08:32;98985.28;;;0.26;57.83
31088;BME280;17745;55.914;37.554;2022-11-24T02:11:08;98987.06;;;0.19;57.85
31088;BME280;17745;55.914;37.554;2022-11-24T02:13:41;98987.84;;;0.20;57.69
31088;BME280;17745;55.914;37.554;2022-11-24T02:16:15;98984.44;;;0.19;57.74
31088;BME280;17745;55.914;37.554;2022-11-24T02:18:50;98999.78;;;0.07;57.86
31088;BME280;17745;55.914;37.554;2022-11-24T02:21:38;98999.84;;;0.14;57.59
31088;BME280;17745;55.914;37.554;2022-11-24T02:24:14;99003.22;;;0.14;57.67
31088;BME280;17745;55.914;37.554;2022-11-24T02:26:49;99003.78;;;0.10;57.67
31088;BME280;17745;55.914;37.554;2022-11-24T02:29:17;99002.25;;;0.16;57.66
31088;BME280;17745;55.914;37.554;2022-11-24T02:31:46;99011.59;;;0.10;57.61
31088;BME280;17745;55.914;37.554;2022-11-24T02:34:14;99007.78;;;0.06;57.70
31088;BME280;17745;55.914;37.554;2022-11-24T02:36:42;99002.81;;;0.11;57.61
31088;BME280;17745;55.914;37.554;2022-11-24T02:39:10;98995.97;;;0.10;57.58
31088;BME280;17745;55.914;37.554;2022-11-24T02:41:39;99002.19;;;0.09;57.67
31088;BME280;17745;55.914;37.554;2022-11-24T02:44:10;99013.19;;;0.04;57.71
31088;BME280;17745;55.914;37.554;2022-11-24T02:46:40;99007.16;;;0.04;57.72
31088;BME280;17745;55.914;37.554;2022-11-24T02:49:07;99013.34;;;0.03;57.78
31088;BME280;17745;55.914;37.554;2022-11-24T02:51:35;99014.72;;;-0.02;57.96
31088;BME280;17745;55.914;37.554;2022-11-24T02:54:04;99015.78;;;0.04;57.89
31088;BME280;17745;55.914;37.554;2022-11-24T02:56:31;99016.16;;;0.01;57.77
31088;BME280;17745;55.914;37.554;2022-11-24T02:58:59;99023.78;;;0.03;57.85
31088;BME280;17745;55.914;37.554;2022-11-24T03:01:28;99028.38;;;0.01;58.01
31088;BME280;17745;55.914;37.554;2022-11-24T03:03:56;99026.00;;;0.06;57.88
31088;BME280;17745;55.914;37.554;2022-11-24T03:06:23;99025.31;;;-0.03;58.04
31088;BME280;17745;55.914;37.554;2022-11-24T03:08:52;99027.38;;;0.02;57.84
31088;BME280;17745;55.914;37.554;2022-11-24T03:11:20;99029.19;;;0.01;57.86
31088;BME280;17745;55.914;37.554;2022-11-24T03:13:48;99030.12;;;-0.07;57.81
31088;BME280;17745;55.914;37.554;2022-11-24T03:16:15;99027.06;;;-0.10;57.77
31088;BME280;17745;55.914;37.554;2022-11-24T03:18:45;99026.91;;;-0.09;57.75
31088;BME280;17745;55.914;37.554;2022-11-24T03:21:12;99027.63;;;-0.15;57.93
31088;BME280;17745;55.914;37.554;2022-11-24T03:23:40;99017.34;;;-0.23;58.06
31088;BME280;17745;55.914;37.554;2022-11-24T03:26:08;99024.53;;;-0.25;57.95
31088;BME280;17745;55.914;37.554;2022-11-24T03:28:35;99032.87;;;-0.30;58.05
31088;BME280;17745;55.914;37.554;2022-11-24T03:31:03;99036.88;;;-0.34;58.16
31088;BME280;17745;55.914;37.554;2022-11-24T03:33:31;99038.91;;;-0.30;58.00
31088;BME280;17745;55.914;37.554;2022-11-24T03:35:59;99030.34;;;-0.23;58.00
31088;BME280;17745;55.914;37.554;2022-11-24T03:38:27;99028.38;;;-0.21;58.04
31088;BME280;17745;55.914;37.554;2022-11-24T03:40:54;99030.53;;;-0.25;58.08
31088;BME280;17745;55.914;37.554;2022-11-24T03:43:22;99031.22;;;-0.16;58.01
31088;BME280;17745;55.914;37.554;2022-11-24T03:45:49;99031.47;;;-0.11;57.98
31088;BME280;17745;55.914;37.554;2022-11-24T03:48:17;99043.13;;;-0.07;57.97
31088;BME280;17745;55.914;37.554;2022-11-24T03:50:51;99040.31;;;-0.05;58.06
31088;BME280;17745;55.914;37.554;2022-11-24T03:53:20;99050.66;;;-0.12;58.08
31088;BME280;17745;55.914;37.554;2022-11-24T03:55:47;99060.28;;;-0.12;58.05
31088;BME280;17745;55.914;37.554;2022-11-24T03:58:15;99051.09;;;-0.08;58.17
31088;BME280;17745;55.914;37.554;2022-11-24T04:00:43;99057.13;;;-0.08;58.10
31088;BME280;17745;55.914;37.554;2022-11-24T04:03:10;99059.97;;;-0.03;58.12
31088;BME280;17745;55.914;37.554;2022-11-24T04:05:37;99054.31;;;-0.06;57.92
31088;BME280;17745;55.914;37.554;2022-11-24T04:08:05;99056.50;;;-0.10;57.89
31088;BME280;17745;55.914;37.554;2022-11-24T04:10:34;99064.13;;;-0.08;57.85
31088;BME280;17745;55.914;37.554;2022-11-24T04:13:02;99067.53;;;-0.08;57.97
31088;BME280;17745;55.914;37.554;2022-11-24T04:15:29;99070.38;;;-0.03;57.86
31088;BME280;17745;55.914;37.554;2022-11-24T04:17:57;99063.56;;;-0.04;58.03
31088;BME280;17745;55.914;37.554;2022-11-24T04:20:25;99068.94;;;-0.05;57.95
31088;BME280;17745;55.914;37.554;2022-11-24T04:22:52;99072.31;;;-0.11;58.12
31088;BME280;17745;55.914;37.554;2022-11-24T04:25:20;99066.41;;;-0.20;58.06
31088;BME280;17745;55.914;37.554;2022-11-24T04:27:50;99071.16;;;-0.24;58.03
31088;BME280;17745;55.914;37.554;2022-11-24T04:30:19;99072.78;;;-0.23;57.92
31088;BME280;17745;55.914;37.554;2022-11-24T04:32:47;99076.19;;;-0.22;57.95
31088;BME280;17745;55.914;37.554;2022-11-24T04:35:14;99074.38;;;-0.22;58.02
31088;BME280;17745;55.914;37.554;2022-11-24T04:37:41;99077.81;;;-0.21;57.92
31088;BME280;17745;55.914;37.554;2022-11-24T04:40:09;99090.66;;;-0.20;57.92
31088;BME280;17745;55.914;37.554;2022-11-24T04:42:38;99090.69;;;-0.13;58.05
31088;BME280;17745;55.914;37.554;2022-11-24T04:45:08;99096.16;;;-0.08;58.11
31088;BME280;17745;55.914;37.554;2022-11-24T04:47:38;99101.63;;;-0.03;58.19
31088;BME280;17745;55.914;37.554;2022-11-24T04:50:08;99104.22;;;-0.03;58.00
31088;BME280;17745;55.914;37.554;2022-11-24T04:52:51;99106.44;;;0.01;58.16
31088;BME280;17745;55.914;37.554;2022-11-24T04:55:19;99107.31;;;0.08;58.18
31088;BME280;17745;55.914;37.554;2022-11-24T04:57:47;99111.97;;;0.12;58.18
31088;BME280;17745;55.914;37.554;2022-11-24T05:00:18;99109.37;;;0.12;58.33
31088;BME280;17745;55.914;37.554;2022-11-24T05:02:46;99109.75;;;0.09;57.94
31088;BME280;17745;55.914;37.554;2022-11-24T05:05:15;99106.97;;;0.11;58.03
31088;BME280;17745;55.914;37.554;2022-11-24T05:07:43;99117.78;;;0.14;57.80
31088;BME280;17745;55.914;37.554;2022-11-24T05:10:10;99118.72;;;0.07;57.57
31088;BME280;17745;55.914;37.554;2022-11-24T05:12:56;99114.00;;;-0.05;57.35
31088;BME280;17745;55.914;37.554;2022-11-24T05:15:27;99113.78;;;-0.10;57.44
31088;BME280;17745;55.914;37.554;2022-11-24T05:17:58;99122.28;;;-0.16;57.54
31088;BME280;17745;55.914;37.554;2022-11-24T05:20:43;99125.37;;;-0.27;57.45
31088;BME280;17745;55.914;37.554;2022-11-24T05:23:19;99128.38;;;-0.31;57.38
31088;BME280;17745;55.914;37.554;2022-11-24T05:25:51;99140.81;;;-0.26;57.43
31088;BME280;17745;55.914;37.554;2022-11-24T05:28:25;99146.53;;;-0.16;57.40
31088;BME280;17745;55.914;37.554;2022-11-24T05:31:09;99148.31;;;-0.16;57.17
31088;BME280;17745;55.914;37.554;2022-11-24T05:33:55;99150.75;;;-0.15;57.22
31088;BME280;17745;55.914;37.554;2022-11-24T05:36:31;99146.69;;;-0.17;57.24
31088;BME280;17745;55.914;37.554;2022-11-24T05:39:16;99155.34;;;-0.17;57.41
31088;BME280;17745;55.914;37.554;2022-11-24T05:41:46;99155.13;;;-0.15;57.13
31088;BME280;17745;55.914;37.554;2022-11-24T05:44:16;99168.59;;;-0.11;57.16
31088;BME280;17745;55.914;37.554;2022-11-24T05:46:45;99161.22;;;-0.08;57.28
31088;BME280;17745;55.914;37.554;2022-11-24T05:49:13;99165.53;;;-0.15;57.14
31088;BME280;17745;55.914;37.554;2022-11-24T05:51:42;99174.16;;;-0.15;56.98
31088;BME280;17745;55.914;37.554;2022-11-24T05:54:12;99175.59;;;-0.12;56.93
31088;BME280;17745;55.914;37.554;2022-11-24T05:56:42;99180.00;;;-0.12;56.95
31088;BME280;17745;55.914;37.554;2022-11-24T05:59:16;99183.59;;;-0.13;56.92
31088;BME280;17745;55.914;37.554;2022-11-24T06:01:51;99186.97;;;-0.13;56.94
31088;BME280;17745;55.914;37.554;2022-11-24T06:04:22;99181.16;;;-0.15;57.10
31088;BME280;17745;55.914;37.554;2022-11-24T06:06:53;99187.72;;;-0.19;57.01
31088;BME280;17745;55.914;37.554;2022-11-24T06:09:25;99190.50;;;-0.21;57.01
31088;BME280;17745;55.914;37.554;2022-11-24T06:11:53;99192.41;;;-0.30;57.01
31088;BME280;17745;55.914;37.554;2022-11-24T06:14:30;99193.03;;;-0.27;56.95
31088;BME280;17745;55.914;37.554;2022-11-24T06:17:02;99198.28;;;-0.21;56.93
31088;BME280;17745;55.914;37.554;2022-11-24T06:19:32;99206.38;;;-0.16;57.06
31088;BME280;17745;55.914;37.554;2022-11-24T06:22:01;99206.47;;;-0.09;57.33
31088;BME280;17745;55.914;37.554;2022-11-24T06:24:36;99202.94;;;-0.01;57.09
31088;BME280;17745;55.914;37.554;2022-11-24T06:27:05;99205.19;;;0.02;57.04
31088;BME280;17745;55.914;37.554;2022-11-24T06:29:34;99219.25;;;0.08;57.07
31088;BME280;17745;55.914;37.554;2022-11-24T06:32:05;99226.16;;;0.16;56.89
31088;BME280;17745;55.914;37.554;2022-11-24T06:34:36;99217.63;;;0.22;56.87
31088;BME280;17745;55.914;37.554;2022-11-24T06:37:04;99219.78;;;0.18;56.42
31088;BME280;17745;55.914;37.554;2022-11-24T06:39:32;99220.84;;;0.24;56.71
31088;BME280;17745;55.914;37.554;2022-11-24T06:41:59;99220.84;;;0.24;56.55
31088;BME280;17745;55.914;37.554;2022-11-24T06:44:27;99224.25;;;0.24;56.62
31088;BME280;17745;55.914;37.554;2022-11-24T06:46:55;99223.50;;;0.31;56.93
31088;BME280;17745;55.914;37.554;2022-11-24T06:49:26;99232.28;;;0.45;57.12
31088;BME280;17745;55.914;37.554;2022-11-24T06:51:55;99230.41;;;0.60;57.19
31088;BME280;17745;55.914;37.554;2022-11-24T06:54:26;99232.50;;;0.71;56.86
31088;BME280;17745;55.914;37.554;2022-11-24T06:56:55;99233.94;;;0.74;56.58
31088;BME280;17745;55.914;37.554;2022-11-24T06:59:23;99230.97;;;0.77;56.52
31088;BME280;17745;55.914;37.554;2022-11-24T07:01:55;99226.16;;;0.81;56.69
31088;BME280;17745;55.914;37.554;2022-11-24T07:04:24;99240.25;;;0.87;56.63
31088;BME280;17745;55.914;37.554;2022-11-24T07:06:59;99243.91;;;0.92;56.59
31088;BME280;17745;55.914;37.554;2022-11-24T07:09:34;99240.94;;;0.95;56.71
31088;BME280;17745;55.914;37.554;2022-11-24T07:12:04;99243.38;;;0.97;56.78
31088;BME280;17745;55.914;37.554;2022-11-24T07:14:34;99243.53;;;0.95;56.18
31088;BME280;17745;55.914;37.554;2022-11-24T07:17:03;99247.34;;;0.93;56.16
31088;BME280;17745;55.914;37.554;2022-11-24T07:19:33;99243.91;;;0.92;55.96
31088;BME280;17745;55.914;37.554;2022-11-24T07:22:09;99247.13;;;0.94;55.84
31088;BME280;17745;55.914;37.554;2022-11-24T07:24:40;99243.44;;;0.82;54.37
31088;BME280;17745;55.914;37.554;2022-11-24T07:27:20;99251.75;;;0.70;54.38
31088;BME280;17745;55.914;37.554;2022-11-24T07:29:50;99252.81;;;0.76;54.89
31088;BME280;17745;55.914;37.554;2022-11-24T07:32:19;99246.22;;;0.80;54.71
31088;BME280;17745;55.914;37.554;2022-11-24T07:34:52;99247.00;;;0.81;54.49
31088;BME280;17745;55.914;37.554;2022-11-24T07:37:26;99254.28;;;0.85;54.54
31088;BME280;17745;55.914;37.554;2022-11-24T07:39:55;99254.91;;;0.88;54.81
31088;BME280;17745;55.914;37.554;2022-11-24T07:42:32;99246.59;;;0.77;54.19
31088;BME280;17745;55.914;37.554;2022-11-24T07:45:12;99248.59;;;0.75;54.23
31088;BME280;17745;55.914;37.554;2022-11-24T07:51:56;99246.09;;;0.45;54.13
31088;BME280;17745;55.914;37.554;2022-11-24T07:54:29;99248.38;;;0.33;54.24
31088;BME280;17745;55.914;37.554;2022-11-24T07:57:02;99243.69;;;0.44;54.19
31088;BME280;17745;55.914;37.554;2022-11-24T07:59:32;99242.62;;;0.60;54.41
31088;BME280;17745;55.914;37.554;2022-11-24T08:02:10;99242.31;;;0.69;54.41
31088;BME280;17745;55.914;37.554;2022-11-24T08:04:46;99244.38;;;0.74;53.99
31088;BME280;17745;55.914;37.554;2022-11-24T08:07:14;99239.87;;;0.46;53.95
31088;BME280;17745;55.914;37.554;2022-11-24T08:09:45;99246.72;;;0.47;53.76
31088;BME280;17745;55.914;37.554;2022-11-24T08:12:16;99255.41;;;0.54;53.56
31088;BME280;17745;55.914;37.554;2022-11-24T08:14:52;99257.28;;;0.61;53.65
31088;BME280;17745;55.914;37.554;2022-11-24T08:17:21;99254.78;;;0.52;53.38
31088;BME280;17745;55.914;37.554;2022-11-24T08:19:55;99260.72;;;0.46;53.31
31088;BME280;17745;55.914;37.554;2022-11-24T08:22:27;99260.56;;;0.48;53.60
31088;BME280;17745;55.914;37.554;2022-11-24T08:25:14;99266.63;;;0.55;53.91
31088;BME280;17745;55.914;37.554;2022-11-24T08:27:49;99264.09;;;0.62;53.84
31088;BME280;17745;55.914;37.554;2022-11-24T08:30:21;99276.56;;;0.66;53.80
31088;BME280;17745;55.914;37.554;2022-11-24T08:32:54;99278.56;;;0.64;53.69
31088;BME280;17745;55.914;37.554;2022-11-24T08:35:23;99283.56;;;0.66;53.48
31088;BME280;17745;55.914;37.554;2022-11-24T08:37:59;99287.31;;;0.56;53.37
31088;BME280;17745;55.914;37.554;2022-11-24T08:40:31;99289.66;;;0.51;53.26
31088;BME280;17745;55.914;37.554;2022-11-24T08:43:03;99298.72;;;0.55;53.43
31088;BME280;17745;55.914;37.554;2022-11-24T08:45:34;99301.03;;;0.65;53.68
31088;BME280;17745;55.914;37.554;2022-11-24T08:48:26;99303.50;;;0.74;53.61
31088;BME280;17745;55.914;37.554;2022-11-24T08:51:04;99306.16;;;0.80;53.34
31088;BME280;17745;55.914;37.554;2022-11-24T08:53:52;99311.62;;;0.85;53.46
31088;BME280;17745;55.914;37.554;2022-11-24T08:59:27;99313.13;;;1.17;53.76
31088;BME280;17745;55.914;37.554;2022-11-24T09:01:58;99323.41;;;1.25;53.61
31088;BME280;17745;55.914;37.554;2022-11-24T09:04:34;99323.41;;;1.25;53.68
31088;BME280;17745;55.914;37.554;2022-11-24T09:07:14;99330.06;;;1.27;53.73
31088;BME280;17745;55.914;37.554;2022-11-24T09:09:43;99338.06;;;1.26;53.25
31088;BME280;17745;55.914;37.554;2022-11-24T09:12:12;99330.84;;;1.28;53.25
31088;BME280;17745;55.914;37.554;2022-11-24T09:14:53;99336.06;;;1.28;52.93
31088;BME280;17745;55.914;37.554;2022-11-24T09:17:24;99335.84;;;1.23;52.80
31088;BME280;17745;55.914;37.554;2022-11-24T09:19:57;99333.00;;;1.18;52.72
31088;BME280;17745;55.914;37.554;2022-11-24T09:22:29;99332.63;;;0.99;52.61
31088;BME280;17745;55.914;37.554;2022-11-24T09:25:00;99332.69;;;0.84;52.52
31088;BME280;17745;55.914;37.554;2022-11-24T09:27:30;99338.37;;;0.73;52.65
31088;BME280;17745;55.914;37.554;2022-11-24T10:08:33;99332.03;;;-0.07;53.84
31088;BME280;17745;55.914;37.554;2022-11-24T10:11:10;99332.81;;;0.09;53.99
31088;BME280;17745;55.914;37.554;2022-11-24T10:13:43;99336.22;;;0.09;53.92
31088;BME280;17745;55.914;37.554;2022-11-24T10:16:19;99340.09;;;0.13;53.87
31088;BME280;17745;55.914;37.554;2022-11-24T10:19:00;99341.16;;;0.19;53.83
31088;BME280;17745;55.914;37.554;2022-11-24T10:21:50;99336.84;;;0.11;53.84
31088;BME280;17745;55.914;37.554;2022-11-24T10:24:40;99344.50;;;0.13;53.96
31088;BME280;17745;55.914;37.554;2022-11-24T10:31:19;99347.81;;;0.07;54.15
31088;BME280;17745;55.914;37.554;2022-11-24T10:34:09;99350.34;;;0.00;54.12
31088;BME280;17745;55.914;37.554;2022-11-24T10:37:34;99350.97;;;0.02;54.04
31088;BME280;17745;55.914;37.554;2022-11-24T10:43:16;99374.91;;;0.42;54.36
31088;BME280;17745;55.914;37.554;2022-11-24T10:45:45;99374.81;;;0.36;53.84
31088;BME280;17745;55.914;37.554;2022-11-24T10:48:15;99372.66;;;0.39;53.99
31088;BME280;17745;55.914;37.554;2022-11-24T10:50:48;99381.81;;;0.50;54.01
31088;BME280;17745;55.914;37.554;2022-11-24T10:53:58;99375.25;;;0.54;53.85
31088;BME280;17745;55.914;37.554;2022-11-24T10:56:49;99375.16;;;0.63;54.02
31088;BME280;17745;55.914;37.554;2022-11-24T10:59:47;99373.06;;;0.73;54.08
31088;BME280;17745;55.914;37.554;2022-11-24T11:53:34;99386.59;;;0.47;53.64
31088;BME280;17745;55.914;37.554;2022-11-24T11:56:23;99387.94;;;0.27;53.76
31088;BME280;17745;55.914;37.554;2022-11-24T11:59:03;99397.28;;;0.22;53.42
31088;BME280;17745;55.914;37.554;2022-11-24T12:04:47;99389.06;;;-0.20;53.76
31088;BME280;17745;55.914;37.554;2022-11-24T12:07:30;99397.09;;;-0.45;54.41
31088;BME280;17745;55.914;37.554;2022-11-24T12:10:11;99389.56;;;-0.40;54.24
31088;BME280;17745;55.914;37.554;2022-11-24T12:12:51;99382.91;;;-0.43;54.32
31088;BME280;17745;55.914;37.554;2022-11-24T12:15:28;99374.59;;;-0.38;54.23
31088;BME280;17745;55.914;37.554;2022-11-24T12:18:10;99383.56;;;-0.40;54.38
31088;BME280;17745;55.914;37.554;2022-11-24T12:21:24;99373.88;;;-0.32;54.46
31088;BME280;17745;55.914;37.554;2022-11-24T13:11:54;99432.69;;;-0.46;54.27
31088;BME280;17745;55.914;37.554;2022-11-24T13:14:43;99441.59;;;-0.40;54.38
31088;BME280;17745;55.914;37.554;2022-11-24T13:17:35;99441.88;;;-0.35;54.42
31088;BME280;17745;55.914;37.554;2022-11-24T13:23:40;99457.69;;;-0.36;54.28
31088;BME280;17745;55.914;37.554;2022-11-24T13:39:58;99479.28;;;-0.36;54.61
31088;BME280;17745;55.914;37.554;2022-11-24T13:43:17;99475.06;;;-0.37;54.57
31088;BME280;17745;55.914;37.554;2022-11-24T13:45:48;99476.69;;;-0.36;54.43
31088;BME280;17745;55.914;37.554;2022-11-24T13:51:28;99483.06;;;-0.38;54.66
31088;BME280;17745;55.914;37.554;2022-11-24T13:54:11;99492.59;;;-0.31;54.74
31088;BME280;17745;55.914;37.554;2022-11-24T13:59:54;99499.34;;;-0.21;54.83
31088;BME280;17745;55.914;37.554;2022-11-24T14:02:41;99494.94;;;-0.21;54.72
31088;BME280;17745;55.914;37.554;2022-11-24T14:05:16;99502.94;;;-0.22;54.39
31088;BME280;17745;55.914;37.554;2022-11-24T14:08:15;99499.88;;;-0.26;54.27
31088;BME280;17745;55.914;37.554;2022-11-24T16:07:37;99584.09;;;-0.90;54.59
31088;BME280;17745;55.914;37.554;2022-11-24T16:10:29;99588.81;;;-0.94;54.48
31088;BME280;17745;55.914;37.554;2022-11-24T16:13:22;99589.97;;;-0.96;54.43
31088;BME280;17745;55.914;37.554;2022-11-24T16:15:58;99584.75;;;-0.96;54.56
31088;BME280;17745;55.914;37.554;2022-11-24T16:18:47;99586.03;;;-0.92;54.41
31088;BME280;17745;55.914;37.554;2022-11-24T16:21:41;99590.94;;;-0.97;54.23
31088;BME280;17745;55.914;37.554;2022-11-24T16:27:10;99594.34;;;-0.97;54.50
31088;BME280;17745;55.914;37.554;2022-11-24T16:29:53;99599.03;;;-0.92;54.50
31088;BME280;17745;55.914;37.554;2022-11-24T16:32:24;99597.56;;;-0.95;54.47
31088;BME280;17745;55.914;37.554;2022-11-24T16:35:04;99601.84;;;-1.02;54.40
31088;BME280;17745;55.914;37.554;2022-11-24T16:37:38;99596.97;;;-1.05;54.22
31088;BME280;17745;55.914;37.554;2022-11-24T16:40:34;99600.25;;;-1.11;54.24
31088;BME280;17745;55.914;37.554;2022-11-24T16:43:10;99606.91;;;-1.17;54.35
31088;BME280;17745;55.914;37.554;2022-11-24T16:48:33;99612.91;;;-1.08;54.42
31088;BME280;17745;55.914;37.554;2022-11-24T16:51:11;99606.06;;;-1.18;54.26
31088;BME280;17745;55.914;37.554;2022-11-24T16:53:45;99616.16;;;-1.23;54.53
31088;BME280;17745;55.914;37.554;2022-11-24T16:56:21;99626.06;;;-1.26;54.63
31088;BME280;17745;55.914;37.554;2022-11-24T16:59:14;99624.44;;;-1.27;54.74
31088;BME280;17745;55.914;37.554;2022-11-24T17:01:53;99620.06;;;-1.27;54.63
31088;BME280;17745;55.914;37.554;2022-11-24T17:04:23;99616.16;;;-1.23;54.52
31088;BME280;17745;55.914;37.554;2022-11-24T17:06:54;99615.84;;;-1.20;54.47
31088;BME280;17745;55.914;37.554;2022-11-24T17:09:24;99622.66;;;-1.10;54.41
31088;BME280;17745;55.914;37.554;2022-11-24T17:12:04;99628.50;;;-1.08;54.41
31088;BME280;17745;55.914;37.554;2022-11-24T17:17:35;99636.47;;;-1.18;54.26
31088;BME280;17745;55.914;37.554;2022-11-24T17:20:44;99637.44;;;-1.19;54.24
31088;BME280;17745;55.914;37.554;2022-11-24T17:23:51;99631.09;;;-1.17;54.40
31088;BME280;17745;55.914;37.554;2022-11-24T17:26:25;99631.28;;;-1.18;54.39
31088;BME280;17745;55.914;37.554;2022-11-24T17:28:59;99632.41;;;-1.21;54.28
31088;BME280;17745;55.914;37.554;2022-11-24T17:31:37;99633.38;;;-1.22;54.38
31088;BME280;17745;55.914;37.554;2022-11-24T17:34:35;99630.13;;;-1.24;54.36
31088;BME280;17745;55.914;37.554;2022-11-24T17:37:09;99628.19;;;-1.30;54.49
31088;BME280;17745;55.914;37.554;2022-11-24T17:39:46;99629.00;;;-1.30;54.47
31088;BME280;17745;55.914;37.554;2022-11-24T17:42:21;99631.91;;;-1.24;54.56
31088;BME280;17745;55.914;37.554;2022-11-24T17:44:53;99636.94;;;-1.23;54.48
31088;BME280;17745;55.914;37.554;2022-11-24T17:47:34;99636.13;;;-1.23;54.37
31088;BME280;17745;55.914;37.554;2022-11-24T17:50:42;99639.84;;;-1.18;54.33
31088;BME280;17745;55.914;37.554;2022-11-24T17:53:25;99633.03;;;-1.10;54.51
31088;BME280;17745;55.914;37.554;2022-11-24T17:55:58;99634.63;;;-1.01;54.32
31088;BME280;17745;55.914;37.554;2022-11-24T17:58:35;99635.66;;;-1.10;54.20
31088;BME280;17745;55.914;37.554;2022-11-24T18:01:03;99635.94;;;-1.13;54.37
31088;BME280;17745;55.914;37.554;2022-11-24T18:13:16;99650.56;;;-1.04;54.42
31088;BME280;17745;55.914;37.554;2022-11-24T18:16:27;99649.25;;;-1.00;54.50
31088;BME280;17745;55.914;37.554;2022-11-24T18:20:32;99653.78;;;-0.94;54.62
31088;BME280;17745;55.914;37.554;2022-11-24T18:23:07;99649.91;;;-0.90;54.39
31088;BME280;17745;55.914;37.554;2022-11-24T18:26:30;99647.16;;;-0.96;54.42
31088;BME280;17745;55.914;37.554;2022-11-24T18:38:41;99658.19;;;-1.03;54.41
31088;BME280;17745;55.914;37.554;2022-11-24T18:45:28;99659.81;;;-0.93;54.44
31088;BME280;17745;55.914;37.554;2022-11-24T18:51:37;99669.56;;;-0.95;54.28
31088;BME280;17745;55.914;37.554;2022-11-24T19:27:11;99685.47;;;-1.07;54.26
31088;BME280;17745;55.914;37.554;2022-11-24T19:29:42;99675.09;;;-1.07;54.18
31088;BME280;17745;55.914;37.554;2022-11-24T19:32:13;99688.56;;;-1.03;54.11
31088;BME280;17745;55.914;37.554;2022-11-24T19:48:28;99676.72;;;-1.06;54.26
31088;BME280;17745;55.914;37.554;2022-11-24T19:51:10;99686.00;;;-1.11;54.29
31088;BME280;17745;55.914;37.554;2022-11-24T19:54:26;99685.34;;;-1.05;54.28
31088;BME280;17745;55.914;37.554;2022-11-24T19:57:13;99689.22;;;-1.01;54.37